createdAt,value
2023-02-13T00:00:55.939Z,99972.94
2023-02-13T00:03:24.804Z,99971.97
2023-02-13T00:05:52.166Z,99972.88
2023-02-13T00:08:19.633Z,99978.97
2023-02-13T00:10:48.269Z,99983.34
2023-02-13T00:13:16.554Z,99976.47
2023-02-13T00:15:44.002Z,99979.06
2023-02-13T00:18:12.035Z,99977.38
2023-02-13T00:20:39.310Z,99973.19
2023-02-13T00:23:06.816Z,99977.34
2023-02-13T00:25:34.045Z,99978.97
2023-02-13T00:28:01.707Z,99987.53
2023-02-13T00:30:29.112Z,99981.53
2023-02-13T00:32:56.920Z,99972.94
2023-02-13T00:35:24.198Z,99974.63
2023-02-13T00:37:51.777Z,99971.94
2023-02-13T00:40:19.277Z,99975.50
2023-02-13T00:42:46.795Z,99987.44
2023-02-13T00:45:14.127Z,99975.19
2023-02-13T00:47:41.701Z,99973.31
2023-02-13T00:50:09.529Z,99963.81
2023-02-13T00:52:37.066Z,99971.56
2023-02-13T00:55:04.581Z,99968.94
2023-02-13T00:57:32.134Z,99966.38
2023-02-13T00:59:59.469Z,99968.84
2023-02-13T01:02:27.356Z,99961.91
2023-02-13T01:04:54.623Z,99969.56
2023-02-13T01:07:22.122Z,99964.53
2023-02-13T01:09:49.471Z,99957.63
2023-02-13T01:12:17.071Z,99959.31
2023-02-13T01:14:44.328Z,99962.59
2023-02-13T01:17:11.903Z,99966.91
2023-02-13T01:19:41.344Z,99959.97
2023-02-13T01:22:09.481Z,99960.88
2023-02-13T01:24:36.732Z,99957.59
2023-02-13T01:27:04.482Z,99950.69
2023-02-13T01:29:31.821Z,99941.19
2023-02-13T01:31:59.412Z,99943.06
2023-02-13T01:34:26.726Z,99939.75
2023-02-13T01:36:54.258Z,99940.50
2023-02-13T01:39:21.505Z,99938.81
2023-02-13T01:41:49.043Z,99931.03
2023-02-13T01:44:54.217Z,99939.59
2023-02-13T01:47:45.284Z,99929.44
2023-02-13T01:50:24.730Z,99926.97
2023-02-13T01:53:39.701Z,99928.53
2023-02-13T01:56:25.793Z,99925.19
2023-02-13T01:58:59.533Z,99924.25
2023-02-13T02:01:29.169Z,99920.59
2023-02-13T02:04:01.813Z,99920.63
2023-02-13T02:06:36.374Z,99922.47
2023-02-13T02:09:12.385Z,99918.06
2023-02-13T02:12:13.792Z,99919.06
2023-02-13T02:14:43.270Z,99915.53
2023-02-13T02:17:12.066Z,99915.53
2023-02-13T02:19:48.937Z,99915.53
2023-02-13T02:23:00.613Z,99908.69
2023-02-13T02:25:55.982Z,99911.44
2023-02-13T02:29:01.726Z,99907.03
2023-02-13T02:31:44.416Z,99913.09
2023-02-13T02:35:02.116Z,99903.50
2023-02-13T02:37:44.184Z,99898.34
2023-02-13T02:40:32.489Z,99902.59
2023-02-13T02:43:19.949Z,99911.16
2023-02-13T02:46:36.344Z,99906.97
2023-02-13T02:49:34.656Z,99909.53
2023-02-13T02:52:23.085Z,99906.16
2023-02-13T02:55:06.686Z,99905.38
2023-02-13T02:58:03.354Z,99914.78
2023-02-13T03:00:55.261Z,99918.28
2023-02-13T03:03:44.164Z,99914.03
2023-02-13T03:06:26.921Z,99908.00
2023-02-13T03:09:22.526Z,99912.41
2023-02-13T03:12:13.895Z,99912.19
2023-02-13T03:14:42.807Z,99908.84
2023-02-13T03:17:36.265Z,99912.28
2023-02-13T03:20:51.303Z,99917.38
2023-02-13T03:23:46.158Z,99912.00
2023-02-13T03:26:16.168Z,99923.16
2023-02-13T03:29:27.538Z,99915.56
2023-02-13T03:32:17.351Z,99916.34
2023-02-13T03:35:23.188Z,99911.13
2023-02-13T03:37:58.216Z,99913.72
2023-02-13T03:41:02.084Z,99912.25
2023-02-13T03:43:42.088Z,99909.75
2023-02-13T03:46:11.358Z,99902.91
2023-02-13T03:49:01.793Z,99899.44
2023-02-13T03:51:48.095Z,99913.91
2023-02-13T03:54:49.384Z,99908.88
2023-02-13T03:57:40.515Z,99913.94
2023-02-13T04:00:15.560Z,99913.91
2023-02-13T04:03:06.089Z,99917.38
2023-02-13T04:05:43.739Z,99912.28
2023-02-13T04:08:12.209Z,99916.38
2023-02-13T04:10:56.982Z,99906.13
2023-02-13T04:13:35.418Z,99914.78
2023-02-13T04:16:40.819Z,99912.41
2023-02-13T04:19:11.281Z,99919.34
2023-02-13T04:21:40.785Z,99909.94
2023-02-13T04:24:09.949Z,99915.16
2023-02-13T04:26:41.658Z,99918.44
2023-02-13T04:29:09.914Z,99914.97
2023-02-13T04:31:37.338Z,99918.44
2023-02-13T04:34:05.007Z,99910.53
2023-02-13T04:36:32.708Z,99907.38
2023-02-13T04:39:00.316Z,99910.53
2023-02-13T04:41:27.600Z,99902.63
2023-02-13T04:43:55.204Z,99899.31
2023-02-13T04:46:22.514Z,99902.63
2023-02-13T04:48:50.215Z,99902.63
2023-02-13T04:51:17.513Z,99907.72
2023-02-13T04:53:45.082Z,99912.00
2023-02-13T04:56:13.540Z,99914.72
2023-02-13T04:58:42.160Z,99916.59
2023-02-13T05:01:17.212Z,99919.06
2023-02-13T05:03:44.907Z,99909.53
2023-02-13T05:06:12.553Z,99912.75
2023-02-13T05:08:40.617Z,99911.13
2023-02-13T05:11:08.162Z,99908.41
2023-02-13T05:13:35.786Z,99920.47
2023-02-13T05:16:03.443Z,99909.41
2023-02-13T05:18:31.002Z,99904.94
2023-02-13T05:21:16.985Z,99904.06
2023-02-13T05:23:44.574Z,99905.78
2023-02-13T05:26:11.854Z,99909.97
2023-02-13T05:28:58.175Z,99910.91
2023-02-13T05:31:25.609Z,99906.56
2023-02-13T05:33:53.254Z,99910.09
2023-02-13T05:36:20.623Z,99911.78
2023-02-13T05:38:48.143Z,99911.84
2023-02-13T05:41:15.423Z,99907.53
2023-02-13T05:43:43.008Z,99907.47
2023-02-13T05:46:11.019Z,99899.78
2023-02-13T05:48:38.661Z,99905.78
2023-02-13T05:51:06.232Z,99907.41
2023-02-13T05:53:35.542Z,99904.75
2023-02-13T05:56:06.978Z,99910.66
2023-02-13T05:58:35.184Z,99902.00
2023-02-13T06:01:03.221Z,99906.28
2023-02-13T06:03:32.575Z,99899.44
2023-02-13T06:06:00.752Z,99897.59
2023-02-13T06:08:28.673Z,99904.47
2023-02-13T06:10:55.900Z,99912.97
2023-02-13T06:13:23.602Z,99913.91
2023-02-13T06:15:51.049Z,99918.06
2023-02-13T06:18:18.734Z,99919.81
2023-02-13T06:20:46.287Z,99921.38
2023-02-13T06:23:14.799Z,99925.59
2023-02-13T06:25:42.100Z,99926.38
2023-02-13T06:28:09.757Z,99926.19
2023-02-13T06:30:37.097Z,99924.41
2023-02-13T06:33:04.747Z,99926.13
2023-02-13T06:35:32.013Z,99930.53
2023-02-13T06:38:01.095Z,99929.56
2023-02-13T06:40:28.457Z,99925.41
2023-02-13T06:42:55.987Z,99928.84
2023-02-13T06:45:23.241Z,99929.66
2023-02-13T06:47:51.832Z,99936.22
2023-02-13T06:50:19.312Z,99935.97
2023-02-13T06:52:49.799Z,99933.84
2023-02-13T06:55:18.317Z,99930.16
2023-02-13T06:57:46.153Z,99935.88
2023-02-13T07:00:16.209Z,99939.13
2023-02-13T07:02:46.905Z,99939.41
2023-02-13T07:05:15.240Z,99935.47
2023-02-13T07:07:43.637Z,99941.22
2023-02-13T07:10:13.981Z,99941.09
2023-02-13T07:12:41.606Z,99944.44
2023-02-13T07:15:09.761Z,99939.34
2023-02-13T07:17:37.340Z,99947.25
2023-02-13T07:20:06.776Z,99946.63
2023-02-13T07:22:35.142Z,99942.63
2023-02-13T07:25:02.450Z,99932.06
2023-02-13T07:27:30.101Z,99937.78
2023-02-13T07:29:57.846Z,99942.13
2023-02-13T07:32:26.123Z,99945.81
2023-02-13T07:35:01.796Z,99938.56
2023-02-13T07:37:33.347Z,99941.84
2023-02-13T07:40:00.803Z,99940.19
2023-02-13T07:42:28.455Z,99935.09
2023-02-13T07:44:55.727Z,99938.63
2023-02-13T07:47:23.263Z,99939.78
2023-02-13T07:49:50.604Z,99939.09
2023-02-13T07:52:18.163Z,99937.28
2023-02-13T07:54:48.167Z,99940.25
2023-02-13T07:57:16.806Z,99943.47
2023-02-13T07:59:44.505Z,99934.69
2023-02-13T08:02:14.719Z,99934.19
2023-02-13T08:04:46.436Z,99938.31
2023-02-13T08:07:16.502Z,99936.38
2023-02-13T08:10:05.851Z,99930.91
2023-02-13T08:12:36.647Z,99931.59
2023-02-13T08:15:05.561Z,99931.75
2023-02-13T08:17:33.072Z,99929.94
2023-02-13T08:20:00.334Z,99942.06
2023-02-13T08:22:27.890Z,99935.06
2023-02-13T08:24:55.233Z,99936.53
2023-02-13T08:27:23.242Z,99943.41
2023-02-13T08:29:51.383Z,99940.94
2023-02-13T08:32:19.194Z,99935.94
2023-02-13T08:34:46.650Z,99932.03
2023-02-13T08:37:14.991Z,99942.00
2023-02-13T08:39:42.791Z,99941.06
2023-02-13T08:42:13.897Z,99951.03
2023-02-13T08:44:44.147Z,99949.16
2023-02-13T08:47:11.865Z,99946.91
2023-02-13T08:49:39.254Z,99945.66
2023-02-13T08:52:07.106Z,99946.25
2023-02-13T08:54:36.510Z,99941.97
2023-02-13T08:57:04.423Z,99943.81
2023-02-13T08:59:31.715Z,99940.47
2023-02-13T09:01:59.529Z,99931.31
2023-02-13T09:04:27.175Z,99936.53
2023-02-13T09:06:55.103Z,99931.78
2023-02-13T09:09:22.535Z,99931.34
2023-02-13T09:11:51.741Z,99949.59
2023-02-13T09:14:19.034Z,99939.03
2023-02-13T09:16:46.702Z,99942.22
2023-02-13T09:19:14.306Z,99930.28
2023-02-13T09:21:41.988Z,99934.00
2023-02-13T09:24:11.343Z,99939.50
2023-02-13T09:26:39.092Z,99943.47
2023-02-13T09:29:06.583Z,99946.03
2023-02-13T09:31:34.605Z,99948.28
2023-02-13T09:34:02.233Z,99941.13
2023-02-13T09:36:29.805Z,99945.22
2023-02-13T09:38:58.419Z,99948.22
2023-02-13T09:41:36.556Z,99948.78
2023-02-13T09:44:34.539Z,99946.97
2023-02-13T09:47:11.569Z,99938.81
2023-02-13T09:49:47.039Z,99936.88
2023-02-13T09:52:15.168Z,99934.63
2023-02-13T09:54:42.837Z,99934.25
2023-02-13T09:57:36.744Z,99935.94
2023-02-13T10:00:31.711Z,99934.91
2023-02-13T10:03:21.822Z,99937.41
2023-02-13T10:05:58.271Z,99929.59
2023-02-13T10:09:01.926Z,99932.53
2023-02-13T10:12:25.767Z,99928.28
2023-02-13T10:15:21.338Z,99935.59
2023-02-13T10:18:04.250Z,99926.81
2023-02-13T10:20:52.198Z,99928.06
2023-02-13T10:24:03.018Z,99918.34
2023-02-13T10:26:46.560Z,99910.06
2023-02-13T10:29:42.262Z,99914.53
2023-02-13T10:32:18.321Z,99925.84
2023-02-13T10:34:48.019Z,99905.53
2023-02-13T10:37:20.425Z,99902.84
2023-02-13T10:39:55.952Z,99902.78
2023-02-13T10:42:36.372Z,99892.38
2023-02-13T10:45:37.507Z,99893.19
2023-02-13T10:48:11.032Z,99891.16
2023-02-13T10:51:04.742Z,99880.47
2023-02-13T10:53:35.054Z,99883.72
2023-02-13T10:56:37.001Z,99880.47
2023-02-13T10:59:27.770Z,99877.28
2023-02-13T11:02:15.303Z,99866.78
2023-02-13T11:04:45.032Z,99871.97
2023-02-13T11:07:20.372Z,99866.78
2023-02-13T11:09:52.379Z,99867.63
2023-02-13T11:12:33.482Z,99874.72
2023-02-13T11:15:06.149Z,99871.31
2023-02-13T11:17:40.773Z,99866.16
2023-02-13T11:20:28.628Z,99865.50
2023-02-13T11:23:11.713Z,99859.72
2023-02-13T11:25:39.534Z,99853.56
2023-02-13T11:28:21.337Z,99851.50
2023-02-13T11:30:49.628Z,99856.97
2023-02-13T11:33:17.055Z,99860.22
2023-02-13T11:35:47.362Z,99848.88
2023-02-13T11:38:24.500Z,99842.94
2023-02-13T11:41:25.923Z,99839.72
2023-02-13T11:44:04.868Z,99833.84
2023-02-13T11:46:50.163Z,99830.50
2023-02-13T11:49:24.742Z,99827.66
2023-02-13T11:51:56.435Z,99830.03
2023-02-13T11:54:26.470Z,99826.34
2023-02-13T11:57:04.885Z,99825.56
2023-02-13T11:59:42.019Z,99820.00
2023-02-13T12:02:27.926Z,99823.19
2023-02-13T12:05:24.745Z,99825.56
2023-02-13T12:08:01.575Z,99819.16
2023-02-13T12:10:33.479Z,99827.38
2023-02-13T12:13:31.459Z,99822.63
2023-02-13T12:16:45.787Z,99819.25
2023-02-13T12:19:34.690Z,99815.06
2023-02-13T12:22:28.075Z,99812.41
2023-02-13T12:25:35.470Z,99814.38
2023-02-13T12:28:32.377Z,99810.97
2023-02-13T12:31:14.802Z,99807.75
2023-02-13T12:33:56.664Z,99812.81
2023-02-13T12:36:55.114Z,99818.13
2023-02-13T12:39:35.096Z,99824.59
2023-02-13T12:42:31.954Z,99817.84
2023-02-13T12:45:47.984Z,99811.66
2023-02-13T12:48:35.267Z,99815.31
2023-02-13T12:51:32.870Z,99814.34
2023-02-13T12:54:21.751Z,99810.69
2023-02-13T12:57:07.304Z,99799.59
2023-02-13T12:59:54.370Z,99803.16
2023-02-13T13:02:33.617Z,99805.47
2023-02-13T13:05:45.119Z,99806.91
2023-02-13T13:08:34.158Z,99802.75
2023-02-13T13:11:51.788Z,99799.47
2023-02-13T13:15:23.632Z,99805.69
2023-02-13T13:18:34.330Z,99806.75
2023-02-13T13:21:53.561Z,99809.03
2023-02-13T13:24:53.855Z,99809.94
2023-02-13T13:27:32.185Z,99807.16
2023-02-13T13:30:29.927Z,99813.09
2023-02-13T13:33:15.653Z,99805.16
2023-02-13T13:36:08.977Z,99801.50
2023-02-13T13:39:14.596Z,99811.94
2023-02-13T13:41:56.005Z,99803.31
2023-02-13T13:44:50.355Z,99806.19
2023-02-13T13:47:56.432Z,99814.03
2023-02-13T13:50:31.783Z,99820.63
2023-02-13T13:53:16.184Z,99814.97
2023-02-13T13:56:02.463Z,99804.06
2023-02-13T13:58:39.661Z,99805.59
2023-02-13T14:01:31.231Z,99815.66
2023-02-13T14:04:24.618Z,99813.84
2023-02-13T14:07:21.956Z,99819.66
2023-02-13T14:09:49.639Z,99811.72
2023-02-13T14:12:25.892Z,99808.06
2023-02-13T14:14:55.866Z,99804.34
2023-02-13T14:17:44.666Z,99811.66
2023-02-13T14:20:33.358Z,99787.31
2023-02-13T14:23:37.884Z,99797.44
2023-02-13T14:26:17.694Z,99807.63
2023-02-13T14:28:50.846Z,99803.19
2023-02-13T14:31:32.367Z,99812.50
2023-02-13T14:34:03.797Z,99803.06
2023-02-13T14:36:42.726Z,99803.34
2023-02-13T14:39:28.175Z,99805.09
2023-02-13T14:41:55.807Z,99803.88
2023-02-13T14:44:34.263Z,99813.41
2023-02-13T14:47:14.747Z,99795.38
2023-02-13T14:49:44.559Z,99792.59
2023-02-13T14:52:28.951Z,99798.59
2023-02-13T14:55:13.771Z,99798.19
2023-02-13T14:57:53.626Z,99800.69
2023-02-13T15:00:59.415Z,99791.78
2023-02-13T15:03:54.764Z,99787.41
2023-02-13T15:06:30.086Z,99786.41
2023-02-13T15:09:06.520Z,99793.84
2023-02-13T15:11:43.773Z,99789.75
2023-02-13T15:14:37.167Z,99793.25
2023-02-13T15:17:26.845Z,99787.56
2023-02-13T15:20:05.190Z,99788.38
2023-02-13T15:22:45.545Z,99778.97
2023-02-13T15:25:40.091Z,99781.94
2023-02-13T15:28:19.503Z,99780.19
2023-02-13T15:31:03.991Z,99783.13
2023-02-13T15:33:49.828Z,99781.53
2023-02-13T15:36:27.029Z,99773.31
2023-02-13T15:39:04.053Z,99769.78
2023-02-13T15:41:44.000Z,99766.63
2023-02-13T15:44:22.676Z,99768.75
2023-02-13T15:46:53.657Z,99776.75
2023-02-13T15:49:25.737Z,99785.38
2023-02-13T15:52:15.148Z,99792.38
2023-02-13T15:54:54.476Z,99782.13
2023-02-13T15:57:24.274Z,99779.66
2023-02-13T15:59:54.574Z,99780.50
2023-02-13T16:02:34.018Z,99784.19
2023-02-13T16:05:02.816Z,99780.69
2023-02-13T16:07:30.776Z,99786.72
2023-02-13T16:10:26.142Z,99787.53
2023-02-13T16:12:56.425Z,99795.94
2023-02-13T16:15:30.138Z,99800.25
2023-02-13T16:17:59.112Z,99788.59
2023-02-13T16:20:30.359Z,99792.00
2023-02-13T16:23:13.775Z,99787.53
2023-02-13T16:25:41.814Z,99787.94
2023-02-13T16:28:27.411Z,99805.91
2023-02-13T16:31:03.269Z,99802.72
2023-02-13T16:33:33.226Z,99796.75
2023-02-13T16:36:28.399Z,99798.75
2023-02-13T16:38:56.500Z,99802.16
2023-02-13T16:41:26.571Z,99796.22
2023-02-13T16:44:01.999Z,99799.66
2023-02-13T16:46:53.736Z,99802.25
2023-02-13T16:49:24.787Z,99811.81
2023-02-13T16:52:24.332Z,99801.56
2023-02-13T16:54:58.807Z,99803.41
2023-02-13T16:57:34.062Z,99812.78
2023-02-13T17:00:25.442Z,99824.84
2023-02-13T17:02:58.962Z,99798.97
2023-02-13T17:05:29.912Z,99790.38
2023-02-13T17:07:58.844Z,99783.06
2023-02-13T17:10:38.534Z,99774.31
2023-02-13T17:13:25.485Z,99778.78
2023-02-13T17:15:55.379Z,99776.34
2023-02-13T17:18:22.727Z,99765.94
2023-02-13T17:20:50.410Z,99769.31
2023-02-13T17:23:22.794Z,99779.09
2023-02-13T17:25:52.805Z,99776.06
2023-02-13T17:28:29.520Z,99763.50
2023-02-13T17:31:00.249Z,99762.72
2023-02-13T17:33:33.698Z,99758.38
2023-02-13T17:36:01.474Z,99763.56
2023-02-13T17:38:29.008Z,99770.69
2023-02-13T17:40:56.999Z,99770.44
2023-02-13T17:43:27.006Z,99764.31
2023-02-13T17:45:54.698Z,99760.94
2023-02-13T17:48:22.124Z,99774.72
2023-02-13T17:50:51.654Z,99764.66
2023-02-13T17:53:31.684Z,99760.22
2023-02-13T17:55:59.757Z,99747.34
2023-02-13T17:58:27.095Z,99742.94
2023-02-13T18:00:54.926Z,99750.00
2023-02-13T18:03:22.596Z,99742.06
2023-02-13T18:05:55.068Z,99754.94
2023-02-13T18:08:22.463Z,99769.59
2023-02-13T18:10:50.176Z,99768.75
2023-02-13T18:13:17.646Z,99753.16
2023-02-13T18:15:45.508Z,99751.44
2023-02-13T18:18:16.153Z,99759.34
2023-02-13T18:20:45.018Z,99739.34
2023-02-13T18:23:14.094Z,99730.72
2023-02-13T18:25:41.751Z,99723.03
2023-02-13T18:28:09.106Z,99724.75
2023-02-13T18:30:36.701Z,99745.41
2023-02-13T18:33:05.209Z,99758.31
2023-02-13T18:35:36.570Z,99772.31
2023-02-13T18:38:04.140Z,99777.41
2023-02-13T18:40:31.749Z,99775.69
2023-02-13T18:42:59.549Z,99769.47
2023-02-13T18:45:27.245Z,99759.88
2023-02-13T18:47:54.640Z,99766.06
2023-02-13T18:50:22.267Z,99778.19
2023-02-13T18:52:49.913Z,99776.47
2023-02-13T18:55:17.595Z,99783.28
2023-02-13T18:57:53.959Z,99782.50
2023-02-13T19:00:23.378Z,99775.63
2023-02-13T19:02:50.672Z,99787.69
2023-02-13T19:05:18.979Z,99795.53
2023-02-13T19:07:46.234Z,99782.56
2023-02-13T19:10:15.687Z,99789.34
2023-02-13T19:12:43.143Z,99800.47
2023-02-13T19:15:11.074Z,99788.34
2023-02-13T19:17:40.489Z,99802.00
2023-02-13T19:20:09.079Z,99808.03
2023-02-13T19:22:36.439Z,99808.91
2023-02-13T19:25:04.687Z,99809.75
2023-02-13T19:27:32.016Z,99801.91
2023-02-13T19:29:59.797Z,99820.34
2023-02-13T19:32:27.210Z,99810.94
2023-02-13T19:34:55.049Z,99816.84
2023-02-13T19:37:22.407Z,99810.78
2023-02-13T19:39:49.997Z,99813.53
2023-02-13T19:42:17.252Z,99807.41
2023-02-13T19:44:44.877Z,99809.13
2023-02-13T19:47:12.188Z,99803.00
2023-02-13T19:49:39.821Z,99807.47
2023-02-13T19:52:07.123Z,99803.06
2023-02-13T19:54:34.689Z,99809.13
2023-02-13T19:57:05.224Z,99808.28
2023-02-13T19:59:33.028Z,99806.50
2023-02-13T20:02:00.497Z,99811.72
2023-02-13T20:04:28.330Z,99798.72
2023-02-13T20:06:58.379Z,99804.88
2023-02-13T20:09:25.981Z,99801.31
2023-02-13T20:11:53.406Z,99808.47
2023-02-13T20:14:20.922Z,99820.38
2023-02-13T20:16:48.515Z,99826.50
2023-02-13T20:19:16.153Z,99819.53
2023-02-13T20:21:45.455Z,99825.81
2023-02-13T20:24:13.652Z,99835.13
2023-02-13T20:26:41.313Z,99846.25
2023-02-13T20:29:09.477Z,99853.16
2023-02-13T20:31:39.602Z,99851.38
2023-02-13T20:34:08.336Z,99854.78
2023-02-13T20:36:35.696Z,99863.44
2023-02-13T20:39:06.807Z,99858.19
2023-02-13T20:41:38.183Z,99853.84
2023-02-13T20:44:13.387Z,99854.81
2023-02-13T20:46:41.742Z,99857.28
2023-02-13T20:49:12.020Z,99850.41
2023-02-13T20:51:39.425Z,99851.19
2023-02-13T20:54:07.057Z,99855.50
2023-02-13T20:56:34.322Z,99860.69
2023-02-13T20:59:02.658Z,99849.41
2023-02-13T21:01:41.349Z,99849.41
2023-02-13T21:04:11.329Z,99852.00
2023-02-13T21:06:40.382Z,99848.53
2023-02-13T21:09:09.598Z,99841.53
2023-02-13T21:11:40.182Z,99847.56
2023-02-13T21:14:08.121Z,99844.97
2023-02-13T21:16:39.187Z,99844.97
2023-02-13T21:19:19.306Z,99842.22
2023-02-13T21:21:47.392Z,99842.22
2023-02-13T21:24:20.547Z,99831.97
2023-02-13T21:26:52.366Z,99835.44
2023-02-13T21:29:20.534Z,99832.78
2023-02-13T21:31:48.408Z,99832.91
2023-02-13T21:34:18.087Z,99830.19
2023-02-13T21:36:46.299Z,99837.13
2023-02-13T21:39:14.855Z,99836.19
2023-02-13T21:41:46.793Z,99829.28
2023-02-13T21:44:16.639Z,99828.53
2023-02-13T21:46:45.527Z,99825.84
2023-02-13T21:49:16.969Z,99820.84
2023-02-13T21:51:45.245Z,99818.31
2023-02-13T21:54:14.242Z,99814.88
2023-02-13T21:56:44.034Z,99822.84
2023-02-13T21:59:17.069Z,99813.28
2023-02-13T22:01:47.929Z,99805.84
2023-02-13T22:04:17.386Z,99817.88
2023-02-13T22:06:51.197Z,99810.81
2023-02-13T22:09:21.895Z,99810.28
2023-02-13T22:11:52.657Z,99811.75
2023-02-13T22:14:21.704Z,99814.44
2023-02-13T22:16:51.999Z,99816.28
2023-02-13T22:19:20.479Z,99818.81
2023-02-13T22:21:47.985Z,99823.06
2023-02-13T22:24:15.590Z,99819.56
2023-02-13T22:26:45.422Z,99833.31
2023-02-13T22:29:17.887Z,99830.75
2023-02-13T22:31:45.775Z,99822.13
2023-02-13T22:34:14.215Z,99816.91
2023-02-13T22:36:43.033Z,99814.31
2023-02-13T22:39:12.058Z,99809.97
2023-02-13T22:41:39.534Z,99809.94
2023-02-13T22:44:07.132Z,99806.50
2023-02-13T22:46:35.291Z,99802.34
2023-02-13T22:49:03.111Z,99805.75
2023-02-13T22:51:36.365Z,99805.88
2023-02-13T22:54:05.399Z,99795.56
2023-02-13T22:56:33.992Z,99798.97
2023-02-13T22:59:02.072Z,99789.59
2023-02-13T23:01:35.350Z,99798.31
2023-02-13T23:04:03.102Z,99798.78
2023-02-13T23:06:30.395Z,99806.69
2023-02-13T23:08:58.184Z,99801.50
2023-02-13T23:11:47.012Z,99799.25
2023-02-13T23:14:15.929Z,99793.91
2023-02-13T23:17:02.238Z,99798.28
2023-02-13T23:19:30.763Z,99796.50
2023-02-13T23:21:59.891Z,99801.63
2023-02-13T23:24:29.644Z,99801.47
2023-02-13T23:26:57.216Z,99810.97
2023-02-13T23:29:25.202Z,99797.00
2023-02-13T23:31:53.178Z,99803.13
2023-02-13T23:34:21.143Z,99794.66
2023-02-13T23:36:48.617Z,99798.09
2023-02-13T23:39:16.641Z,99798.78
2023-02-13T23:41:43.926Z,99792.75
2023-02-13T23:44:11.511Z,99803.13
2023-02-13T23:46:38.801Z,99797.09
2023-02-13T23:49:07.547Z,99798.56
2023-02-13T23:51:35.114Z,99796.66
2023-02-13T23:54:03.270Z,99798.22
2023-02-13T23:56:30.831Z,99794.63
2023-02-13T23:58:58.492Z,99797.28
